Time;durP1;ratioP1;P1;durP2;ratioP2;P2;SDS_P1;SDS_P2;PMS_P1;PMS_P2;Temp;Humidity;BMP_temperature;BMP_pressure;BME280_temperature;BME280_humidity;BME280_pressure;Samples;Min_cycle;Max_cycle;Signal;HPM_P1;HPM_P2
2022/06/18 00:01:34;;;;;;;12.60;3.30;;;25.00;95.20;;;;;;5075807;28;20082;-72
2022/06/18 00:04:12;;;;;;;8.88;3.10;;;25.00;95.00;;;;;;5075232;28;20029;-71
2022/06/18 00:06:58;;;;;;;6.50;2.75;;;25.00;95.10;;;;;;5057656;28;20036;-70
2022/06/18 00:09:34;;;;;;;8.38;3.28;;;24.90;95.10;;;;;;5074825;28;20029;-70
2022/06/18 00:14:54;;;;;;;17.58;3.55;;;24.90;94.70;;;;;;5062513;28;20054;-71
2022/06/18 00:17:20;;;;;;;8.57;2.92;;;24.90;94.30;;;;;;5075218;28;20040;-70
2022/06/18 00:19:46;;;;;;;12.00;3.22;;;25.00;94.10;;;;;;5075277;28;20099;-69
2022/06/18 00:22:18;;;;;;;11.88;2.65;;;25.20;93.40;;;;;;5075378;28;20111;-71
2022/06/18 00:24:45;;;;;;;8.35;2.80;;;25.00;93.50;;;;;;5090551;28;20016;-71
2022/06/18 00:27:13;;;;;;;9.20;3.33;;;25.00;93.60;;;;;;5075133;28;20044;-70
2022/06/18 00:29:39;;;;;;;14.80;3.22;;;24.80;94.10;;;;;;5057171;28;20027;-69
2022/06/18 00:32:06;;;;;;;5.38;3.20;;;24.70;94.40;;;;;;5074989;28;20385;-70
2022/06/18 00:34:31;;;;;;;9.18;2.97;;;24.70;94.40;;;;;;5090490;28;20026;-70
2022/06/18 00:36:58;;;;;;;11.85;3.20;;;24.70;94.60;;;;;;5075116;28;20025;-70
2022/06/18 00:39:27;;;;;;;17.70;3.15;;;24.80;94.50;;;;;;5074646;28;20025;-71
2022/06/18 00:41:53;;;;;;;7.03;3.63;;;24.60;94.70;;;;;;5074651;28;20020;-72
2022/06/18 00:44:31;;;;;;;11.63;3.00;;;24.50;95.10;;;;;;5074978;28;20029;-70
2022/06/18 00:47:08;;;;;;;8.30;3.25;;;24.60;95.20;;;;;;5071163;28;20036;-70
2022/06/18 00:49:43;;;;;;;8.82;3.25;;;24.60;95.20;;;;;;5074932;28;20036;-71
2022/06/18 00:52:22;;;;;;;9.30;3.53;;;24.60;95.30;;;;;;5074372;28;20036;-70
2022/06/18 00:55:01;;;;;;;9.48;3.25;;;24.80;95.10;;;;;;5074423;28;20069;-72
2022/06/18 00:57:35;;;;;;;9.02;3.03;;;24.90;94.90;;;;;;5056788;28;20078;-71
2022/06/18 01:00:03;;;;;;;7.03;2.90;;;24.90;95.10;;;;;;5073941;28;20032;-72
2022/06/18 01:02:42;;;;;;;6.85;3.55;;;24.80;95.30;;;;;;5074890;28;20036;-71
2022/06/18 01:05:23;;;;;;;9.52;3.22;;;24.60;95.60;;;;;;5073838;28;20389;-71
2022/06/18 01:08:00;;;;;;;9.93;3.28;;;24.20;96.30;;;;;;5073926;28;20429;-71
2022/06/18 01:10:41;;;;;;;7.63;3.15;;;23.90;96.90;;;;;;5074438;28;20033;-69
2022/06/18 01:13:11;;;;;;;5.97;3.25;;;23.90;97.40;;;;;;5089879;28;20116;-70
2022/06/18 01:15:40;;;;;;;16.60;3.70;;;24.10;97.30;;;;;;5089787;28;20051;-69
2022/06/18 01:18:07;;;;;;;7.53;3.45;;;24.20;96.50;;;;;;5056024;28;20035;-70
2022/06/18 01:20:42;;;;;;;12.85;3.58;;;24.40;96.50;;;;;;5074151;28;20029;-69
2022/06/18 01:23:23;;;;;;;16.63;3.42;;;24.30;96.20;;;;;;5056238;28;20028;-70
2022/06/18 01:25:51;;;;;;;9.55;3.00;;;24.30;96.10;;;;;;5089347;28;20049;-72
2022/06/18 01:28:17;;;;;;;12.68;3.50;;;23.90;96.90;;;;;;5073902;28;20055;-69
2022/06/18 01:30:45;;;;;;;6.13;3.08;;;24.10;97.20;;;;;;5089646;28;20112;-70
2022/06/18 01:33:15;;;;;;;6.95;3.08;;;24.00;97.20;;;;;;5089551;28;20024;-69
2022/06/18 01:35:48;;;;;;;9.30;3.03;;;23.90;97.20;;;;;;5055984;28;20493;-71
2022/06/18 01:38:18;;;;;;;10.35;3.58;;;23.90;97.60;;;;;;5055463;28;20426;-70
2022/06/18 01:40:48;;;;;;;13.57;3.28;;;24.10;97.30;;;;;;5055860;28;20020;-70
2022/06/18 01:43:18;;;;;;;12.52;3.53;;;24.20;96.80;;;;;;5089059;28;20078;-71
2022/06/18 01:45:51;;;;;;;8.45;3.67;;;24.30;96.80;;;;;;5074044;28;20037;-71
2022/06/18 01:48:23;;;;;;;6.43;3.40;;;24.10;96.80;;;;;;5052110;28;20105;-71
2022/06/18 01:51:16;;;;;;;10.27;3.53;;;24.20;96.80;;;;;;5073515;28;20040;-70
2022/06/18 01:53:50;;;;;;;8.68;3.35;;;24.40;96.40;;;;;;5069924;28;20032;-72
2022/06/18 01:56:25;;;;;;;8.90;3.67;;;24.60;96.10;;;;;;5055633;28;20039;-69
2022/06/18 01:59:18;;;;;;;15.65;3.80;;;24.20;96.40;;;;;;5055390;28;20048;-69
2022/06/18 02:01:46;;;;;;;10.30;3.67;;;24.20;96.50;;;;;;5088745;28;20481;-70
2022/06/18 02:04:16;;;;;;;10.68;3.83;;;24.20;96.70;;;;;;5088894;28;20028;-69
2022/06/18 02:06:44;;;;;;;10.20;4.03;;;24.10;96.50;;;;;;5088577;28;20589;-70
2022/06/18 02:09:35;;;;;;;14.77;3.85;;;24.10;96.60;;;;;;5054913;28;20504;-70
2022/06/18 02:12:04;;;;;;;15.77;3.83;;;24.20;96.40;;;;;;5072949;28;20032;-72
2022/06/18 02:14:35;;;;;;;11.20;4.00;;;24.10;97.00;;;;;;5055295;28;20020;-70
2022/06/18 02:17:05;;;;;;;14.15;3.67;;;24.20;96.40;;;;;;5073098;28;20048;-71
2022/06/18 02:19:34;;;;;;;7.82;3.28;;;24.10;96.30;;;;;;5073032;28;20038;-70
2022/06/18 02:22:02;;;;;;;15.33;3.70;;;24.00;96.50;;;;;;5072890;28;20468;-71
2022/06/18 02:24:29;;;;;;;10.18;3.65;;;23.90;96.80;;;;;;5088536;28;20024;-70
2022/06/18 02:26:56;;;;;;;9.32;3.10;;;23.80;97.10;;;;;;5072906;28;20038;-71
2022/06/18 02:29:27;;;;;;;8.07;3.20;;;23.80;97.00;;;;;;5072962;28;20100;-69
2022/06/18 02:31:54;;;;;;;10.02;3.55;;;23.50;97.70;;;;;;5055082;28;20389;-71
2022/06/18 02:34:27;;;;;;;14.20;3.88;;;23.40;97.80;;;;;;5072523;28;20054;-71
2022/06/18 02:36:55;;;;;;;9.50;3.40;;;23.30;98.30;;;;;;5054824;28;20445;-71
2022/06/18 02:39:36;;;;;;;11.70;4.13;;;23.40;98.70;;;;;;5088488;28;20115;-71
2022/06/18 02:42:15;;;;;;;14.85;4.15;;;23.10;98.70;;;;;;5088504;28;20381;-70
2022/06/18 02:44:44;;;;;;;27.92;4.40;;;23.30;98.60;;;;;;5054827;28;20067;-70
2022/06/18 02:47:12;;;;;;;13.07;4.15;;;23.30;98.50;;;;;;5069530;28;20028;-71
2022/06/18 02:50:00;;;;;;;9.55;4.13;;;23.00;99.10;;;;;;5072469;28;20047;-70
2022/06/18 02:52:34;;;;;;;9.75;3.65;;;23.00;99.50;;;;;;5072803;28;20060;-70
2022/06/18 02:55:16;;;;;;;7.20;3.42;;;23.10;99.80;;;;;;5072797;28;20032;-71
2022/06/18 02:57:42;;;;;;;13.77;4.63;;;23.20;99.90;;;;;;5072813;28;20380;-72
2022/06/18 03:00:12;;;;;;;11.00;3.60;;;23.20;99.90;;;;;;5069901;28;20469;-70
2022/06/18 03:02:38;;;;;;;7.40;3.63;;;23.20;99.90;;;;;;5072915;28;20016;-72
2022/06/18 03:05:06;;;;;;;7.70;4.00;;;23.00;99.90;;;;;;5087800;28;20017;-72
2022/06/18 03:07:32;;;;;;;8.07;3.72;;;23.00;99.90;;;;;;5087810;28;20036;-70
2022/06/18 03:12:42;;;;;;;10.20;4.05;;;22.90;99.90;;;;;;5072674;28;20028;-71
2022/06/18 03:15:08;;;;;;;11.50;3.65;;;22.90;99.90;;;;;;5072377;28;20062;-70
2022/06/18 03:17:35;;;;;;;9.55;3.63;;;22.90;99.90;;;;;;5072092;28;20028;-70
2022/06/18 03:20:08;;;;;;;10.13;4.10;;;22.80;99.90;;;;;;5054423;28;20028;-71
2022/06/18 03:22:34;;;;;;;12.00;5.00;;;22.70;99.90;;;;;;5074722;28;20423;-72
2022/06/18 03:24:59;;;;;;;14.02;4.07;;;22.80;99.90;;;;;;5058324;28;20078;-71
2022/06/18 03:27:25;;;;;;;10.63;3.78;;;22.80;99.90;;;;;;5076172;28;20060;-70
2022/06/18 03:29:58;;;;;;;9.27;4.00;;;22.90;99.90;;;;;;5091765;28;20042;-71
2022/06/18 03:32:24;;;;;;;10.02;4.32;;;22.60;99.90;;;;;;5091813;28;20115;-69
2022/06/18 03:34:51;;;;;;;8.88;4.28;;;22.50;99.90;;;;;;5058197;28;20031;-71
2022/06/18 03:37:18;;;;;;;11.50;4.00;;;22.30;99.90;;;;;;5057963;28;20484;-71
2022/06/18 03:39:44;;;;;;;16.33;5.13;;;22.30;99.90;;;;;;5091922;28;20075;-71
2022/06/18 03:42:10;;;;;;;13.57;4.47;;;22.60;99.90;;;;;;5058055;28;20032;-70
2022/06/18 03:44:37;;;;;;;9.35;4.28;;;22.40;99.90;;;;;;5091592;28;20464;-70
2022/06/18 03:47:05;;;;;;;10.70;4.10;;;22.50;99.90;;;;;;5082028;28;20029;-70
2022/06/18 03:49:36;;;;;;;12.80;4.30;;;22.30;99.90;;;;;;5057862;28;20024;-70
2022/06/18 03:52:06;;;;;;;10.60;4.50;;;22.30;99.90;;;;;;5057957;28;20032;-70
2022/06/18 03:54:32;;;;;;;12.05;3.97;;;22.20;99.90;;;;;;5091408;28;20408;-69
2022/06/18 03:57:00;;;;;;;12.48;5.47;;;22.10;99.90;;;;;;5057817;28;20028;-70
2022/06/18 03:59:28;;;;;;;12.25;3.95;;;22.20;99.90;;;;;;5057480;28;20483;-70
2022/06/18 04:01:54;;;;;;;8.85;4.75;;;22.40;99.90;;;;;;5057609;28;20032;-70
2022/06/18 04:04:23;;;;;;;12.70;4.95;;;22.40;99.90;;;;;;5090802;28;20035;-70
2022/06/18 04:06:53;;;;;;;10.13;3.75;;;22.40;99.90;;;;;;5091151;28;20033;-72
2022/06/18 04:09:42;;;;;;;20.23;4.25;;;22.60;99.90;;;;;;5075438;28;20036;-70
2022/06/18 04:12:09;;;;;;;9.73;4.00;;;22.20;99.90;;;;;;5091153;28;20388;-70
2022/06/18 04:14:56;;;;;;;22.02;4.95;;;22.30;99.90;;;;;;5072003;28;20097;-71
2022/06/18 04:17:33;;;;;;;20.52;4.60;;;22.50;99.90;;;;;;5090794;28;20059;-71
2022/06/18 04:19:59;;;;;;;11.73;4.85;;;22.10;99.90;;;;;;5090928;28;20051;-70
2022/06/18 04:22:28;;;;;;;17.95;4.70;;;22.30;99.90;;;;;;5090895;28;20397;-70
2022/06/18 04:25:03;;;;;;;10.65;4.25;;;22.20;99.90;;;;;;5090058;28;20025;-72
2022/06/18 04:27:29;;;;;;;13.77;5.13;;;22.40;99.90;;;;;;5055741;28;20054;-70
2022/06/18 04:29:55;;;;;;;10.32;4.43;;;22.50;99.90;;;;;;5056883;28;20146;-71
2022/06/18 04:32:31;;;;;;;16.02;4.63;;;22.50;99.90;;;;;;5091011;28;20028;-71
2022/06/18 04:34:57;;;;;;;10.23;5.35;;;22.70;99.90;;;;;;5089123;28;20044;-72
2022/06/18 04:37:43;;;;;;;21.42;5.78;;;22.50;99.90;;;;;;5090604;28;20028;-69
2022/06/18 04:40:31;;;;;;;15.98;5.40;;;22.30;99.90;;;;;;5056785;28;20021;-72
2022/06/18 04:43:27;;;;;;;16.75;5.10;;;22.60;99.90;;;;;;5065431;28;20079;-69
2022/06/18 04:45:55;;;;;;;17.10;5.80;;;22.60;99.90;;;;;;5090149;28;20519;-71
2022/06/18 04:48:23;;;;;;;16.15;5.30;;;22.80;99.90;;;;;;5050742;28;20079;-72
2022/06/18 04:50:51;;;;;;;19.60;5.85;;;23.00;99.90;;;;;;5056762;28;20024;-71
2022/06/18 04:53:17;;;;;;;17.77;6.13;;;23.30;99.90;;;;;;5090399;28;20445;-70
2022/06/18 04:55:46;;;;;;;15.48;5.82;;;23.50;99.90;;;;;;5056697;28;20059;-70
2022/06/18 04:58:12;;;;;;;13.30;6.25;;;23.20;99.90;;;;;;5090113;28;20385;-70
2022/06/18 05:00:44;;;;;;;22.42;6.72;;;23.00;99.90;;;;;;5056161;28;20013;-71
2022/06/18 05:03:20;;;;;;;18.15;6.07;;;22.70;99.90;;;;;;5090110;28;20058;-70
2022/06/18 05:06:02;;;;;;;17.58;6.13;;;22.80;99.90;;;;;;5056474;28;20495;-69
2022/06/18 05:08:43;;;;;;;22.65;8.02;;;22.60;99.90;;;;;;5074199;28;20408;-71
2022/06/18 05:11:27;;;;;;;23.58;5.80;;;22.90;99.90;;;;;;5074139;28;20078;-70
2022/06/18 05:14:16;;;;;;;14.07;5.70;;;23.20;99.90;;;;;;5063650;28;20041;-70
2022/06/18 05:16:52;;;;;;;13.20;6.05;;;23.30;99.90;;;;;;5061052;28;20377;-72
2022/06/18 05:19:31;;;;;;;17.55;5.43;;;23.30;99.90;;;;;;5056114;28;20499;-71
2022/06/18 05:22:00;;;;;;;26.02;5.35;;;23.40;99.90;;;;;;5056418;28;20029;-71
2022/06/18 05:24:27;;;;;;;19.67;6.28;;;23.20;99.90;;;;;;5089814;28;20029;-69
2022/06/18 05:26:58;;;;;;;16.83;6.07;;;23.50;99.90;;;;;;5089355;28;20028;-71
2022/06/18 05:29:24;;;;;;;21.05;5.20;;;23.80;99.90;;;;;;5073708;28;20035;-71
2022/06/18 05:31:50;;;;;;;24.88;6.57;;;23.90;99.40;;;;;;5055889;28;20032;-69
2022/06/18 05:34:16;;;;;;;18.25;6.25;;;23.90;98.70;;;;;;5089302;28;20029;-69
2022/06/18 05:36:44;;;;;;;23.70;6.78;;;24.00;98.80;;;;;;5055891;28;20020;-69
2022/06/18 05:39:15;;;;;;;20.27;5.75;;;23.80;98.70;;;;;;5055838;28;20071;-71
2022/06/18 05:41:41;;;;;;;15.07;6.32;;;24.10;98.80;;;;;;5089875;28;20476;-70
2022/06/18 05:44:07;;;;;;;18.63;6.32;;;24.30;98.00;;;;;;5073771;28;20020;-70
2022/06/18 05:46:33;;;;;;;22.70;6.28;;;23.90;97.20;;;;;;5050631;28;20065;-69
2022/06/18 05:48:59;;;;;;;24.73;6.18;;;23.80;98.70;;;;;;5072614;28;20051;-69
2022/06/18 05:51:25;;;;;;;18.90;5.93;;;23.80;99.10;;;;;;5089154;28;20063;-70
2022/06/18 05:53:51;;;;;;;18.17;6.38;;;23.60;98.60;;;;;;5089357;28;20020;-69
2022/06/18 05:56:43;;;;;;;23.95;6.93;;;23.60;99.00;;;;;;5070193;28;20037;-72
2022/06/18 05:59:23;;;;;;;20.85;6.15;;;23.60;99.20;;;;;;5075476;28;20039;-71
2022/06/18 06:01:49;;;;;;;19.95;6.70;;;23.40;99.40;;;;;;5055456;28;20025;-71
2022/06/18 06:04:19;;;;;;;25.38;7.10;;;23.60;99.10;;;;;;5088719;28;20025;-69
2022/06/18 06:06:45;;;;;;;16.30;6.43;;;23.50;99.40;;;;;;5089057;28;20560;-69
2022/06/18 06:09:12;;;;;;;29.00;6.60;;;23.30;99.60;;;;;;5088450;28;20126;-68
2022/06/18 06:11:38;;;;;;;18.77;6.25;;;23.30;99.60;;;;;;5073101;28;20112;-70
2022/06/18 06:14:08;;;;;;;24.40;7.13;;;23.30;99.90;;;;;;5085483;28;20601;-70
2022/06/18 06:16:33;;;;;;;17.67;6.50;;;23.60;99.50;;;;;;5053472;28;20025;-69
2022/06/18 06:19:03;;;;;;;18.55;6.50;;;23.30;99.90;;;;;;5056992;28;20023;-70
2022/06/18 06:21:29;;;;;;;22.20;6.93;;;23.50;99.90;;;;;;5072876;28;20024;-69
2022/06/18 06:23:55;;;;;;;13.60;6.57;;;23.80;99.70;;;;;;5087617;28;20042;-70
2022/06/18 06:26:30;;;;;;;22.20;7.60;;;23.60;99.60;;;;;;5083966;28;20028;-80
2022/06/18 06:28:56;;;;;;;15.27;6.95;;;23.50;99.90;;;;;;5076439;28;20111;-70
2022/06/18 06:31:22;;;;;;;20.83;7.68;;;23.90;99.10;;;;;;5074042;28;20146;-71
2022/06/18 06:33:48;;;;;;;19.50;7.22;;;24.30;99.00;;;;;;5076730;28;20012;-76
2022/06/18 06:36:13;;;;;;;19.50;6.20;;;24.00;99.10;;;;;;5086995;28;20555;-70
2022/06/18 06:38:40;;;;;;;18.80;7.32;;;23.90;99.50;;;;;;5079811;28;20029;-75
2022/06/18 06:41:16;;;;;;;20.90;7.40;;;23.60;99.60;;;;;;5074700;28;20025;-72
2022/06/18 06:43:42;;;;;;;17.40;6.72;;;23.90;99.90;;;;;;5073325;28;20469;-70
2022/06/18 06:46:12;;;;;;;23.63;7.97;;;24.00;99.30;;;;;;5076183;28;20121;-70
2022/06/18 06:48:38;;;;;;;18.48;8.27;;;24.10;99.50;;;;;;5079571;28;20041;-70
2022/06/18 06:51:11;;;;;;;19.73;8.93;;;24.50;98.80;;;;;;5070931;28;20052;-69
2022/06/18 06:53:38;;;;;;;21.33;8.52;;;25.00;98.30;;;;;;5074936;28;20039;-75
2022/06/18 06:58:49;;;;;;;27.90;8.82;;;24.60;98.60;;;;;;5071833;28;20095;-71
2022/06/18 07:01:15;;;;;;;22.48;9.30;;;24.60;99.00;;;;;;5083141;28;20096;-70
2022/06/18 07:03:41;;;;;;;19.40;8.43;;;24.70;98.40;;;;;;5085383;28;20111;-72
2022/06/18 07:06:07;;;;;;;25.02;8.05;;;24.30;99.20;;;;;;5081467;28;20412;-70
2022/06/18 07:08:32;;;;;;;23.80;8.55;;;24.20;99.70;;;;;;5082578;28;20044;-70
2022/06/18 07:10:59;;;;;;;18.48;8.45;;;24.40;99.60;;;;;;5088254;28;20039;-72
2022/06/18 07:13:24;;;;;;;21.75;8.88;;;24.80;98.50;;;;;;5093584;28;20156;-70
2022/06/18 07:15:51;;;;;;;26.00;9.65;;;24.60;98.60;;;;;;5082137;28;20106;-70
2022/06/18 07:18:23;;;;;;;22.73;8.75;;;24.60;99.10;;;;;;5074748;28;20028;-70
2022/06/18 07:20:49;;;;;;;20.35;7.22;;;24.80;98.40;;;;;;5075952;28;20107;-70
2022/06/18 07:23:15;;;;;;;21.83;7.43;;;25.00;98.30;;;;;;5085327;28;20103;-75
2022/06/18 07:25:41;;;;;;;17.05;7.35;;;25.10;98.50;;;;;;5085033;28;20458;-70
2022/06/18 07:28:08;;;;;;;21.00;6.75;;;25.30;98.20;;;;;;5080971;28;20059;-70
2022/06/18 07:30:35;;;;;;;19.73;6.88;;;25.40;98.10;;;;;;5075397;28;20024;-70
2022/06/18 07:33:01;;;;;;;25.17;7.10;;;25.60;97.60;;;;;;5075559;28;20138;-71
2022/06/18 07:35:30;;;;;;;29.08;6.60;;;25.60;97.80;;;;;;5067519;28;20483;-78
2022/06/18 07:37:59;;;;;;;19.17;5.28;;;25.90;97.30;;;;;;5088697;28;20020;-70
2022/06/18 07:40:31;;;;;;;22.45;6.35;;;25.50;97.50;;;;;;5089564;28;21050;-70
2022/06/18 07:42:57;;;;;;;18.77;6.22;;;25.50;97.20;;;;;;5093932;28;20028;-70
2022/06/18 07:45:24;;;;;;;19.58;6.22;;;25.70;97.50;;;;;;5086779;28;20035;-68
2022/06/18 07:47:51;;;;;;;25.60;6.00;;;25.70;98.00;;;;;;5089886;28;20032;-69
2022/06/18 07:50:19;;;;;;;31.58;6.95;;;25.60;97.80;;;;;;5092171;28;20020;-70
2022/06/18 07:52:45;;;;;;;23.33;8.77;;;25.70;97.40;;;;;;5092011;28;20028;-70
2022/06/18 07:55:19;;;;;;;20.67;8.90;;;25.80;97.20;;;;;;5092122;28;20111;-70
2022/06/18 07:57:46;;;;;;;23.77;7.60;;;25.60;97.40;;;;;;5089588;28;20024;-70
2022/06/18 08:00:16;;;;;;;29.58;7.65;;;25.60;97.20;;;;;;5091221;28;20081;-70
2022/06/18 08:02:44;;;;;;;20.45;6.47;;;25.80;97.50;;;;;;5092907;28;20044;-70
2022/06/18 08:05:12;;;;;;;20.48;6.82;;;25.60;97.70;;;;;;5090761;28;20020;-70
2022/06/18 08:07:38;;;;;;;17.55;6.28;;;25.70;97.80;;;;;;5088481;28;20469;-70
2022/06/18 08:10:05;;;;;;;19.60;6.05;;;26.00;97.50;;;;;;5092486;28;20024;-70
2022/06/18 08:12:33;;;;;;;14.95;6.13;;;26.40;97.40;;;;;;5093930;28;20483;-70
2022/06/18 08:15:01;;;;;;;21.60;5.82;;;26.30;97.20;;;;;;5092575;28;20012;-69
2022/06/18 08:17:27;;;;;;;21.08;6.85;;;26.10;97.70;;;;;;5091343;28;20039;-70
2022/06/18 08:19:53;;;;;;;23.33;7.03;;;26.20;97.80;;;;;;5088400;28;20024;-70
2022/06/18 08:22:22;;;;;;;25.80;7.50;;;26.20;97.70;;;;;;5092943;28;20032;-69
2022/06/18 08:24:48;;;;;;;24.95;7.90;;;26.10;97.30;;;;;;5090812;28;20020;-70
2022/06/18 08:27:15;;;;;;;24.70;8.73;;;26.20;97.20;;;;;;5093754;28;20071;-71
2022/06/18 08:29:41;;;;;;;23.95;7.35;;;26.10;97.50;;;;;;5093649;28;20472;-70
2022/06/18 08:32:08;;;;;;;24.30;7.05;;;26.40;97.90;;;;;;5094651;28;20024;-70
2022/06/18 08:34:34;;;;;;;27.13;7.93;;;26.70;97.10;;;;;;5092313;28;20107;-69
2022/06/18 08:37:06;;;;;;;22.60;6.25;;;26.90;97.20;;;;;;5085865;28;20096;-70
2022/06/18 08:39:33;;;;;;;25.80;7.55;;;27.10;97.50;;;;;;5090767;28;20049;-69
2022/06/18 08:42:19;;;;;;;21.38;6.75;;;27.10;97.20;;;;;;5090899;28;20024;-70
2022/06/18 08:45:09;;;;;;;23.27;7.00;;;27.20;98.00;;;;;;5071640;28;20144;-70
2022/06/18 08:48:03;;;;;;;24.15;7.13;;;27.00;98.00;;;;;;5064395;28;20036;-70
2022/06/18 08:50:32;;;;;;;18.52;7.07;;;27.50;97.10;;;;;;5074788;28;20469;-70
2022/06/18 08:53:06;;;;;;;27.45;7.28;;;27.70;96.50;;;;;;5074135;28;20032;-70
2022/06/18 08:55:50;;;;;;;27.10;7.05;;;27.50;96.60;;;;;;5075021;28;20031;-69
2022/06/18 08:58:36;;;;;;;21.17;7.07;;;27.50;96.10;;;;;;5058894;28;20577;-70
2022/06/18 09:01:20;;;;;;;24.10;6.50;;;27.40;96.00;;;;;;5085146;28;20032;-70
2022/06/18 09:04:06;;;;;;;24.88;7.05;;;28.20;96.00;;;;;;5077211;28;20527;-70
2022/06/18 09:06:54;;;;;;;20.33;6.40;;;27.80;95.10;;;;;;5073675;28;20522;-69
2022/06/18 09:09:26;;;;;;;18.90;6.93;;;28.00;95.70;;;;;;5073550;28;20028;-70
2022/06/18 09:12:15;;;;;;;37.92;7.47;;;28.60;95.00;;;;;;5079639;28;20033;-66
2022/06/18 09:14:49;;;;;;;23.73;6.88;;;28.80;94.40;;;;;;5071776;28;20035;-66
2022/06/18 09:17:30;;;;;;;40.38;7.20;;;28.80;94.30;;;;;;5057276;28;20066;-66
2022/06/18 09:20:10;;;;;;;26.27;6.32;;;29.50;93.70;;;;;;5078881;28;20112;-67
2022/06/18 09:22:44;;;;;;;19.77;7.20;;;29.90;93.60;;;;;;5072934;28;20025;-66
2022/06/18 09:25:19;;;;;;;29.02;7.57;;;28.90;93.70;;;;;;5078104;28;20060;-66
2022/06/18 09:27:57;;;;;;;27.33;6.60;;;29.30;93.90;;;;;;5076845;28;20385;-66
2022/06/18 09:30:34;;;;;;;25.27;8.32;;;29.70;94.20;;;;;;5078172;28;20028;-66
2022/06/18 09:33:06;;;;;;;22.48;6.72;;;29.00;93.50;;;;;;5079718;28;20526;-66
2022/06/18 09:35:39;;;;;;;28.92;6.85;;;28.70;94.70;;;;;;5077076;28;20036;-66
2022/06/18 09:38:10;;;;;;;20.17;7.43;;;28.90;94.60;;;;;;5078199;28;20444;-66
2022/06/18 09:40:38;;;;;;;;;;;29.50;94.10;;;;;;5053270;28;20510;-66
2022/06/18 09:43:45;;;;;;;25.98;6.97;;;29.60;94.20;;;;;;5075285;28;19954;-66
2022/06/18 09:46:32;;;;;;;24.23;7.32;;;29.50;93.70;;;;;;5078079;28;20110;-66
2022/06/18 09:48:58;;;;;;;24.55;6.53;;;29.80;93.90;;;;;;5076724;28;20499;-66
2022/06/18 09:51:37;;;;;;;29.75;7.53;;;30.10;92.90;;;;;;5080551;28;20012;-66
2022/06/18 09:54:06;;;;;;;22.67;6.88;;;30.00;93.20;;;;;;5074709;28;20032;-66
2022/06/18 09:56:38;;;;;;;26.35;6.78;;;29.90;93.60;;;;;;5075502;28;20081;-66
2022/06/18 09:59:18;;;;;;;23.67;6.95;;;29.80;93.10;;;;;;5080240;28;20485;-66
2022/06/18 10:01:53;;;;;;;27.15;6.07;;;30.20;94.30;;;;;;5077031;28;20533;-66
2022/06/18 10:07:14;;;;;;;28.00;6.72;;;31.20;92.20;;;;;;5074055;28;20063;-67
2022/06/18 10:09:47;;;;;;;21.35;6.35;;;30.80;91.30;;;;;;5075003;28;20074;-67
2022/06/18 10:12:32;;;;;;;23.27;4.95;;;30.50;91.70;;;;;;5075747;28;20040;-66
2022/06/18 10:15:00;;;;;;;19.15;5.10;;;30.60;90.90;;;;;;5072544;28;20363;-66
2022/06/18 10:17:31;;;;;;;21.98;5.90;;;30.30;91.80;;;;;;5079459;28;20028;-66
2022/06/18 10:20:04;;;;;;;20.70;5.03;;;30.30;91.20;;;;;;5073875;28;20039;-66
2022/06/18 10:22:37;;;;;;;26.40;5.60;;;30.20;91.90;;;;;;5072674;28;20024;-66
2022/06/18 10:25:27;;;;;;;22.77;4.57;;;30.80;91.50;;;;;;5076443;28;20499;-66
2022/06/18 10:27:58;;;;;;;18.05;4.93;;;31.50;90.00;;;;;;5081422;28;20034;-66
2022/06/18 10:31:04;;;;;;;13.63;4.57;;;31.00;90.00;;;;;;5077138;28;20028;-66
2022/06/18 10:33:59;;;;;;;19.05;4.93;;;31.00;89.50;;;;;;5065993;28;20047;-65
2022/06/18 10:36:54;;;;;;;16.02;4.57;;;30.90;90.60;;;;;;5050618;28;20171;-66
2022/06/18 10:39:21;;;;;;;34.05;5.20;;;31.00;89.70;;;;;;5078795;28;20385;-66
2022/06/18 10:42:41;;;;;;;21.38;4.65;;;30.80;90.10;;;;;;5075882;28;20116;-66
2022/06/18 10:45:27;;;;;;;22.60;5.25;;;31.30;90.00;;;;;;5004472;28;20502;-67
2022/06/18 10:47:54;;;;;;;20.23;5.22;;;31.30;90.70;;;;;;5002354;28;20050;-66
2022/06/18 10:50:21;;;;;;;14.43;4.65;;;31.30;90.30;;;;;;5050962;28;20477;-67
2022/06/18 10:53:02;;;;;;;28.88;6.30;;;32.00;90.50;;;;;;5056845;28;20042;-66
2022/06/18 10:55:29;;;;;;;15.57;4.13;;;32.00;89.60;;;;;;5072253;28;20028;-69
2022/06/18 10:58:07;;;;;;;31.67;5.10;;;32.10;89.70;;;;;;5076244;28;20112;-66
2022/06/18 11:00:33;;;;;;;15.45;4.88;;;31.90;89.20;;;;;;5078613;28;20073;-66
2022/06/18 11:03:02;;;;;;;20.95;4.95;;;31.50;90.20;;;;;;5070013;28;20028;-66
2022/06/18 11:05:30;;;;;;;22.75;4.47;;;31.80;90.00;;;;;;5077227;28;20023;-67
2022/06/18 11:08:00;;;;;;;21.33;5.05;;;32.30;88.60;;;;;;5080894;28;20476;-66
2022/06/18 11:10:38;;;;;;;19.73;4.38;;;32.90;87.10;;;;;;5074645;28;20054;-66
2022/06/18 11:13:16;;;;;;;31.55;4.80;;;32.70;87.20;;;;;;5077409;28;20067;-68
2022/06/18 11:15:42;;;;;;;18.50;4.68;;;32.30;87.20;;;;;;5078303;28;20026;-67
2022/06/18 11:18:21;;;;;;;17.65;4.88;;;32.30;88.30;;;;;;5075775;28;20107;-67
2022/06/18 11:21:04;;;;;;;18.52;4.72;;;33.20;87.70;;;;;;5072746;28;20457;-66
2022/06/18 11:23:34;;;;;;;24.33;4.82;;;33.70;87.10;;;;;;5081836;28;20023;-67
2022/06/18 11:26:01;;;;;;;20.15;4.53;;;33.30;85.60;;;;;;5075156;28;20032;-68
2022/06/18 11:28:48;;;;;;;18.98;4.18;;;33.00;87.70;;;;;;5060331;28;20028;-67
2022/06/18 11:31:24;;;;;;;20.70;5.32;;;33.00;86.90;;;;;;5077268;28;20083;-66
2022/06/18 11:33:59;;;;;;;14.88;4.68;;;33.40;85.10;;;;;;5078993;28;20432;-66
2022/06/18 11:36:48;;;;;;;18.52;4.75;;;33.30;86.80;;;;;;5073655;28;20063;-68
2022/06/18 11:39:31;;;;;;;25.50;4.03;;;33.80;86.40;;;;;;5077848;28;20028;-67
2022/06/18 11:42:02;;;;;;;27.08;5.80;;;33.70;85.50;;;;;;5072424;28;20021;-67
2022/06/18 11:44:47;;;;;;;22.02;5.30;;;33.50;85.10;;;;;;5078369;28;20029;-67
2022/06/18 11:47:19;;;;;;;20.73;5.03;;;33.10;84.30;;;;;;5077293;28;20060;-68
2022/06/18 11:49:56;;;;;;;11.43;4.15;;;33.60;85.00;;;;;;5060171;28;20028;-67
2022/06/18 11:52:41;;;;;;;20.30;4.20;;;34.40;85.20;;;;;;5076102;28;20029;-68
2022/06/18 11:55:16;;;;;;;20.65;4.28;;;34.60;84.50;;;;;;5081466;28;20035;-66
2022/06/18 11:57:49;;;;;;;15.15;4.50;;;33.80;83.60;;;;;;5079174;28;20024;-66
2022/06/18 12:00:41;;;;;;;21.10;4.28;;;33.70;83.60;;;;;;5077542;28;20036;-68
2022/06/18 12:03:16;;;;;;;18.40;4.25;;;34.30;85.30;;;;;;5077057;28;20107;-67
2022/06/18 12:05:50;;;;;;;24.27;4.38;;;34.60;83.00;;;;;;5080484;28;20404;-66
2022/06/18 12:08:21;;;;;;;20.27;5.13;;;35.00;82.50;;;;;;5056618;28;20036;-67
2022/06/18 12:10:53;;;;;;;23.52;4.88;;;35.10;82.90;;;;;;5079150;28;20030;-71
2022/06/18 12:13:37;;;;;;;19.98;4.30;;;35.60;82.50;;;;;;5078067;28;20028;-68
2022/06/18 12:16:12;;;;;;;18.30;5.13;;;35.20;82.20;;;;;;5096570;28;20424;-68
2022/06/18 12:18:58;;;;;;;20.98;4.95;;;35.10;83.50;;;;;;5078987;28;20032;-67
2022/06/18 12:21:37;;;;;;;33.08;5.78;;;35.20;82.40;;;;;;5078236;28;20123;-68
2022/06/18 12:24:03;;;;;;;24.35;5.97;;;35.00;82.70;;;;;;5081693;28;20036;-70
2022/06/18 12:26:35;;;;;;;24.80;5.30;;;35.40;84.10;;;;;;5077862;28;20090;-70
2022/06/18 12:29:04;;;;;;;22.00;5.13;;;35.10;84.80;;;;;;5077122;28;20082;-68
2022/06/18 12:31:41;;;;;;;26.73;5.10;;;35.80;82.80;;;;;;5079964;28;20115;-69
2022/06/18 12:34:23;;;;;;;26.88;5.45;;;36.20;83.90;;;;;;5082008;28;20055;-68
2022/06/18 12:37:34;;;;;;;15.38;5.28;;;36.80;84.00;;;;;;5076422;28;20029;-67
2022/06/18 12:40:15;;;;;;;31.65;6.15;;;37.20;83.60;;;;;;5067653;28;20439;-67
2022/06/18 12:42:53;;;;;;;27.55;5.70;;;37.40;82.00;;;;;;5078433;28;20060;-66
2022/06/18 12:45:36;;;;;;;22.60;5.20;;;37.10;81.70;;;;;;5077711;28;20476;-67
2022/06/18 12:48:12;;;;;;;18.25;5.03;;;36.70;81.40;;;;;;5077342;28;20031;-69
2022/06/18 12:50:58;;;;;;;23.10;4.90;;;36.60;81.60;;;;;;5078947;28;20029;-67
2022/06/18 12:53:53;;;;;;;23.02;5.78;;;35.10;82.10;;;;;;5066056;28;20441;-67
2022/06/18 12:56:30;;;;;;;18.83;4.53;;;35.60;80.40;;;;;;5077439;28;20103;-67
2022/06/18 12:59:11;;;;;;;23.70;5.70;;;35.30;82.30;;;;;;5081179;28;20044;-67
2022/06/18 13:02:09;;;;;;;;;;;35.10;82.00;;;;;;5075136;28;20063;-68
2022/06/18 13:04:45;;;;;;;17.75;4.25;;;35.60;82.00;;;;;;5040444;28;20276;-67
2022/06/18 13:07:35;;;;;;;17.55;5.50;;;36.70;80.50;;;;;;5076611;28;20039;-69
2022/06/18 13:10:13;;;;;;;17.35;5.15;;;36.70;81.10;;;;;;5080684;28;20032;-67
2022/06/18 13:13:00;;;;;;;17.85;5.68;;;36.70;81.00;;;;;;5081061;28;20032;-67
2022/06/18 13:15:29;;;;;;;17.38;5.50;;;36.50;80.90;;;;;;5080165;28;20025;-67
2022/06/18 13:18:07;;;;;;;23.38;5.30;;;37.00;81.60;;;;;;5078168;28;20040;-67
2022/06/18 13:20:43;;;;;;;18.27;5.60;;;37.60;81.50;;;;;;5080383;28;20404;-67